createdAt,value
2018-09-12T00:04:49.212Z,49.40
2018-09-12T00:09:55.735Z,49.50
2018-09-12T00:14:59.018Z,49.50
2018-09-12T00:20:02.263Z,49.60
2018-09-12T00:25:05.512Z,49.70
2018-09-12T00:30:08.780Z,49.70
2018-09-12T00:35:12.016Z,49.70
2018-09-12T00:40:15.274Z,49.80
2018-09-12T00:45:18.524Z,49.90
2018-09-12T00:50:21.752Z,50.00
2018-09-12T00:55:24.988Z,49.80
2018-09-12T01:00:28.604Z,49.90
2018-09-12T01:05:31.844Z,49.90
2018-09-12T01:10:35.092Z,49.90
2018-09-12T01:15:38.312Z,50.30
2018-09-12T01:20:41.551Z,50.00
2018-09-12T01:25:44.939Z,50.10
2018-09-12T01:30:48.175Z,49.90
2018-09-12T01:35:51.420Z,50.10
2018-09-12T01:40:54.664Z,50.30
2018-09-12T01:45:57.893Z,50.50
2018-09-12T01:51:01.126Z,50.50
2018-09-12T01:56:04.376Z,50.30
2018-09-12T02:01:07.583Z,50.50
2018-09-12T02:06:10.817Z,50.50
2018-09-12T02:11:14.067Z,50.80
2018-09-12T02:16:17.268Z,50.60
2018-09-12T02:21:20.477Z,50.80
2018-09-12T02:26:23.696Z,50.40
2018-09-12T02:31:26.898Z,50.70
2018-09-12T02:36:30.212Z,50.70
2018-09-12T02:41:33.412Z,50.80
2018-09-12T02:46:36.617Z,50.80
2018-09-12T02:51:39.819Z,50.60
2018-09-12T02:56:43.092Z,50.60
2018-09-12T03:01:46.316Z,50.60
2018-09-12T03:06:49.536Z,50.60
2018-09-12T03:11:52.803Z,50.80
2018-09-12T03:16:56.008Z,50.70
2018-09-12T03:21:59.295Z,50.20
2018-09-12T03:27:02.669Z,50.70
2018-09-12T03:32:06.004Z,50.60
2018-09-12T03:37:09.233Z,50.80
2018-09-12T03:42:12.460Z,50.60
2018-09-12T03:47:15.664Z,50.70
2018-09-12T03:52:18.879Z,50.60
2018-09-12T03:57:22.101Z,50.50
2018-09-12T04:02:25.311Z,50.50
2018-09-12T04:07:28.548Z,50.40
2018-09-12T04:12:31.823Z,50.70
2018-09-12T04:17:36.480Z,51.00
2018-09-12T04:22:39.717Z,50.80
2018-09-12T04:27:42.936Z,50.80
2018-09-12T04:32:46.167Z,50.90
2018-09-12T04:37:49.383Z,51.20
2018-09-12T04:42:52.651Z,51.30
2018-09-12T04:47:55.857Z,51.30
2018-09-12T04:52:59.115Z,51.20
2018-09-12T04:58:02.404Z,51.60
2018-09-12T05:03:05.724Z,51.50
2018-09-12T05:08:08.965Z,51.60
2018-09-12T05:13:12.281Z,51.60
2018-09-12T05:18:15.566Z,51.70
2018-09-12T05:23:18.774Z,51.50
2018-09-12T05:28:21.997Z,51.50
2018-09-12T05:33:25.536Z,51.50
2018-09-12T05:38:28.761Z,51.30
2018-09-12T05:43:31.990Z,51.50
2018-09-12T05:48:35.204Z,51.60
2018-09-12T05:53:38.433Z,51.50
2018-09-12T05:58:41.656Z,51.80
2018-09-12T06:03:44.887Z,51.60
2018-09-12T06:08:48.096Z,51.70
2018-09-12T06:13:51.359Z,51.70
2018-09-12T06:18:54.596Z,51.80
2018-09-12T06:23:57.912Z,51.60
2018-09-12T06:29:01.151Z,51.60
2018-09-12T06:34:04.417Z,51.50
2018-09-12T06:39:09.423Z,51.70
2018-09-12T06:44:12.641Z,51.80
2018-09-12T06:49:15.871Z,51.90
2018-09-12T06:54:19.116Z,52.30
2018-09-12T06:59:22.347Z,52.60
2018-09-12T07:04:25.595Z,52.70
2018-09-12T07:09:28.820Z,53.00
2018-09-12T07:14:32.196Z,53.30
2018-09-12T07:19:35.424Z,53.10
2018-09-12T07:24:38.664Z,53.10
2018-09-12T07:29:41.864Z,53.20
2018-09-12T07:34:45.085Z,53.30
2018-09-12T07:39:48.287Z,53.40
2018-09-12T07:44:51.504Z,53.50
2018-09-12T07:49:55.195Z,53.60
2018-09-12T07:54:58.393Z,53.80
2018-09-12T08:00:01.818Z,53.90
2018-09-12T08:05:05.032Z,54.20
2018-09-12T08:10:08.228Z,54.00
2018-09-12T08:15:11.457Z,54.10
2018-09-12T08:20:14.679Z,54.10
2018-09-12T08:25:17.911Z,54.40
2018-09-12T08:30:21.151Z,54.40
2018-09-12T08:35:24.384Z,54.50
2018-09-12T08:40:27.621Z,54.40
2018-09-12T08:45:30.847Z,54.70
2018-09-12T08:50:34.076Z,54.80
2018-09-12T08:55:37.317Z,54.70
2018-09-12T09:00:40.549Z,54.90
2018-09-12T09:05:43.787Z,55.90
2018-09-12T09:10:46.995Z,55.40
2018-09-12T09:15:50.232Z,55.70
2018-09-12T09:20:53.459Z,55.70
2018-09-12T09:25:56.691Z,55.80
2018-09-12T09:30:59.917Z,55.90
2018-09-12T09:36:03.125Z,55.90
2018-09-12T09:41:06.357Z,56.10
2018-09-12T09:46:09.516Z,56.20
2018-09-12T09:51:12.744Z,56.10
2018-09-12T09:56:15.964Z,56.40
2018-09-12T10:01:24.460Z,56.20
2018-09-12T10:06:28.386Z,56.00
2018-09-12T10:11:31.619Z,55.80
2018-09-12T10:16:34.832Z,55.60
2018-09-12T10:21:38.054Z,55.60
2018-09-12T10:26:41.275Z,55.40
2018-09-12T10:31:44.592Z,55.00
2018-09-12T10:36:47.804Z,54.80
2018-09-12T10:41:51.057Z,55.00
2018-09-12T10:46:54.293Z,54.90
2018-09-12T10:51:57.503Z,54.60
2018-09-12T10:57:00.808Z,54.60
2018-09-12T11:02:04.040Z,54.40
2018-09-12T11:07:07.244Z,54.00
2018-09-12T11:12:10.472Z,53.70
2018-09-12T11:17:13.678Z,53.80
2018-09-12T11:22:16.937Z,54.00
2018-09-12T11:27:20.145Z,53.60
2018-09-12T11:32:23.372Z,53.90
2018-09-12T11:37:26.572Z,53.60
2018-09-12T11:42:29.792Z,53.20
2018-09-12T11:47:33.104Z,53.50
2018-09-12T11:52:36.329Z,53.10
2018-09-12T11:57:39.539Z,52.80
2018-09-12T12:02:42.764Z,52.70
2018-09-12T12:07:45.971Z,52.40
2018-09-12T12:12:49.229Z,52.90
2018-09-12T12:17:52.437Z,52.90
2018-09-12T12:22:55.627Z,53.10
2018-09-12T12:27:58.837Z,53.10
2018-09-12T12:33:02.043Z,53.30
2018-09-12T12:38:05.376Z,53.00
2018-09-12T12:43:08.592Z,52.80
2018-09-12T12:48:11.804Z,52.90
2018-09-12T12:53:15.009Z,52.50
2018-09-12T12:58:18.201Z,52.80
2018-09-12T13:03:21.412Z,54.30
2018-09-12T13:08:24.619Z,54.90
2018-09-12T13:13:27.852Z,55.00
2018-09-12T13:18:31.096Z,55.20
2018-09-12T13:23:34.310Z,55.20
2018-09-12T13:28:37.526Z,55.30
2018-09-12T13:33:40.767Z,55.10
2018-09-12T13:38:43.996Z,55.10
2018-09-12T13:43:47.188Z,54.90
2018-09-12T13:48:50.384Z,55.00
2018-09-12T13:53:53.592Z,54.80
2018-09-12T13:58:56.799Z,54.90
2018-09-12T14:04:00.096Z,54.80
2018-09-12T14:09:04.176Z,54.50
2018-09-12T14:14:07.568Z,54.10
2018-09-12T14:19:10.864Z,53.90
2018-09-12T14:24:14.189Z,53.50
2018-09-12T14:29:22.737Z,53.80
2018-09-12T14:34:26.727Z,53.20
2018-09-12T14:39:30.051Z,52.70
2018-09-12T14:44:33.252Z,52.50
2018-09-12T14:49:36.470Z,53.20
2018-09-12T14:54:39.778Z,53.10
2018-09-12T14:59:43.054Z,52.60
2018-09-12T15:04:46.335Z,52.40
2018-09-12T15:09:49.584Z,52.40
2018-09-12T15:14:52.819Z,51.80
2018-09-12T15:19:56.213Z,52.20
2018-09-12T15:24:59.581Z,52.60
2018-09-12T15:30:02.812Z,52.00
2018-09-12T15:35:06.072Z,52.20
2018-09-12T15:40:09.296Z,51.70
2018-09-12T15:45:12.576Z,51.80
2018-09-12T15:50:15.799Z,51.90
2018-09-12T15:55:19.077Z,51.30
2018-09-12T16:00:22.308Z,51.80
2018-09-12T16:05:25.521Z,51.30
2018-09-12T16:10:28.837Z,51.70
2018-09-12T16:15:32.121Z,51.50
2018-09-12T16:20:35.448Z,51.50
2018-09-12T16:25:38.684Z,51.40
2018-09-12T16:30:42.256Z,51.20
2018-09-12T16:35:45.547Z,51.30
2018-09-12T16:40:48.782Z,51.00
2018-09-12T16:45:52.015Z,51.10
2018-09-12T16:50:55.380Z,50.80
2018-09-12T16:55:58.627Z,51.00
2018-09-12T17:01:01.880Z,51.20
2018-09-12T17:06:05.094Z,51.20
2018-09-12T17:11:08.340Z,51.10
2018-09-12T17:16:11.575Z,51.10
2018-09-12T17:21:14.792Z,51.30
2018-09-12T17:26:18.008Z,51.00
2018-09-12T17:31:21.253Z,51.20
2018-09-12T17:36:25.991Z,51.30
2018-09-12T17:41:29.219Z,51.10
2018-09-12T17:46:32.762Z,51.30
2018-09-12T17:51:35.968Z,51.30
2018-09-12T17:56:39.392Z,51.30
2018-09-12T18:01:42.616Z,51.40
2018-09-12T18:06:45.874Z,51.60
2018-09-12T18:11:49.108Z,51.30
2018-09-12T18:16:52.356Z,51.40
2018-09-12T18:21:56.462Z,51.50
2018-09-12T18:26:59.675Z,51.80
2018-09-12T18:32:02.955Z,51.50
2018-09-12T18:37:06.376Z,51.50
2018-09-12T18:42:09.641Z,51.70
2018-09-12T18:47:12.914Z,51.90
2018-09-12T18:52:16.154Z,52.10
2018-09-12T18:57:19.408Z,52.20
2018-09-12T19:02:22.629Z,52.10
2018-09-12T19:07:25.841Z,52.10
2018-09-12T19:12:29.227Z,52.30
2018-09-12T19:17:32.471Z,52.30
2018-09-12T19:22:35.686Z,52.30
2018-09-12T19:27:38.972Z,52.30
2018-09-12T19:32:42.188Z,52.20
2018-09-12T19:37:45.375Z,52.10
2018-09-12T19:42:48.605Z,52.20
2018-09-12T19:47:51.898Z,52.30
2018-09-12T19:52:55.144Z,52.40
2018-09-12T19:57:58.389Z,52.40
2018-09-12T20:03:01.654Z,52.40
2018-09-12T20:08:04.976Z,52.70
2018-09-12T20:13:08.202Z,53.00
2018-09-12T20:18:11.958Z,53.20
2018-09-12T20:23:15.229Z,53.00
2018-09-12T20:28:18.460Z,53.10
2018-09-12T20:33:21.710Z,53.10
2018-09-12T20:38:24.920Z,53.20
2018-09-12T20:43:28.171Z,53.40
2018-09-12T20:48:31.532Z,53.10
2018-09-12T20:53:34.775Z,53.30
2018-09-12T20:58:38.032Z,53.30
2018-09-12T21:03:41.279Z,52.90
2018-09-12T21:08:44.655Z,53.20
2018-09-12T21:13:47.883Z,53.20
2018-09-12T21:18:51.115Z,52.90
2018-09-12T21:23:54.315Z,53.10
2018-09-12T21:28:57.641Z,53.00
2018-09-12T21:34:00.871Z,53.30
2018-09-12T21:39:06.270Z,53.30
2018-09-12T21:44:09.479Z,53.30
2018-09-12T21:49:12.729Z,53.40
2018-09-12T21:54:15.931Z,54.50
2018-09-12T21:59:19.139Z,53.60
2018-09-12T22:04:22.339Z,53.90
2018-09-12T22:09:25.542Z,53.40
2018-09-12T22:14:28.787Z,54.00
2018-09-12T22:19:32.055Z,53.80
2018-09-12T22:24:35.488Z,53.80
2018-09-12T22:29:38.692Z,53.70
2018-09-12T22:34:41.941Z,53.90
2018-09-12T22:39:45.248Z,54.30
2018-09-12T22:44:48.491Z,54.10
2018-09-12T22:49:51.725Z,54.00
2018-09-12T22:54:54.968Z,54.10
2018-09-12T22:59:58.223Z,54.20
2018-09-12T23:05:01.473Z,54.10
2018-09-12T23:10:04.848Z,54.10
2018-09-12T23:15:08.092Z,54.10
2018-09-12T23:20:11.372Z,53.80
2018-09-12T23:25:14.605Z,53.90
2018-09-12T23:30:17.849Z,53.60
2018-09-12T23:35:21.084Z,53.50
2018-09-12T23:40:24.304Z,53.60
2018-09-12T23:45:27.540Z,53.70
2018-09-12T23:50:30.835Z,53.60
2018-09-12T23:55:34.161Z,53.90
